sensor_id;sensor_type;location;lat;lon;timestamp;temperature;humidity
74178;DHT22;62540;48.456;-4.456;2024-01-27T00:01:32;8.17;68.92
74178;DHT22;62540;48.456;-4.456;2024-01-27T00:03:58;8.17;68.96
74178;DHT22;62540;48.456;-4.456;2024-01-27T00:06:23;8.16;68.96
74178;DHT22;62540;48.456;-4.456;2024-01-27T00:08:49;8.14;68.99
74178;DHT22;62540;48.456;-4.456;2024-01-27T00:11:14;8.13;69.01
74178;DHT22;62540;48.456;-4.456;2024-01-27T00:13:39;8.12;68.98
74178;DHT22;62540;48.456;-4.456;2024-01-27T00:16:05;8.12;69.01
74178;DHT22;62540;48.456;-4.456;2024-01-27T00:18:31;8.06;69.05
74178;DHT22;62540;48.456;-4.456;2024-01-27T00:20:56;8.06;69.19
74178;DHT22;62540;48.456;-4.456;2024-01-27T00:23:21;8.04;69.20
74178;DHT22;62540;48.456;-4.456;2024-01-27T00:25:47;8.04;69.10
74178;DHT22;62540;48.456;-4.456;2024-01-27T00:28:12;8.03;69.03
74178;DHT22;62540;48.456;-4.456;2024-01-27T00:30:38;7.99;69.16
74178;DHT22;62540;48.456;-4.456;2024-01-27T00:33:03;7.96;69.30
74178;DHT22;62540;48.456;-4.456;2024-01-27T00:35:29;7.97;69.30
74178;DHT22;62540;48.456;-4.456;2024-01-27T00:37:54;7.93;69.36
74178;DHT22;62540;48.456;-4.456;2024-01-27T00:40:19;7.89;69.45
74178;DHT22;62540;48.456;-4.456;2024-01-27T00:42:45;7.90;69.52
74178;DHT22;62540;48.456;-4.456;2024-01-27T00:45:10;7.87;69.60
74178;DHT22;62540;48.456;-4.456;2024-01-27T00:47:36;7.83;69.61
74178;DHT22;62540;48.456;-4.456;2024-01-27T00:50:01;7.85;69.96
74178;DHT22;62540;48.456;-4.456;2024-01-27T00:52:26;7.82;69.93
74178;DHT22;62540;48.456;-4.456;2024-01-27T00:54:52;7.82;69.91
74178;DHT22;62540;48.456;-4.456;2024-01-27T00:57:17;7.81;69.93
74178;DHT22;62540;48.456;-4.456;2024-01-27T00:59:43;7.83;69.85
74178;DHT22;62540;48.456;-4.456;2024-01-27T01:02:08;7.76;70.15
74178;DHT22;62540;48.456;-4.456;2024-01-27T01:04:34;7.72;70.41
74178;DHT22;62540;48.456;-4.456;2024-01-27T01:06:59;7.71;70.49
74178;DHT22;62540;48.456;-4.456;2024-01-27T01:09:25;7.71;70.41
74178;DHT22;62540;48.456;-4.456;2024-01-27T01:11:50;7.72;70.44
74178;DHT22;62540;48.456;-4.456;2024-01-27T01:14:16;7.69;70.48
74178;DHT22;62540;48.456;-4.456;2024-01-27T01:16:42;7.65;70.60
74178;DHT22;62540;48.456;-4.456;2024-01-27T01:19:07;7.66;70.51
74178;DHT22;62540;48.456;-4.456;2024-01-27T01:21:33;7.64;70.70
74178;DHT22;62540;48.456;-4.456;2024-01-27T01:23:58;7.64;70.82
74178;DHT22;62540;48.456;-4.456;2024-01-27T01:26:24;7.62;71.02
74178;DHT22;62540;48.456;-4.456;2024-01-27T01:28:50;7.66;70.87
74178;DHT22;62540;48.456;-4.456;2024-01-27T01:31:16;7.69;70.78
74178;DHT22;62540;48.456;-4.456;2024-01-27T01:33:42;7.71;70.66
74178;DHT22;62540;48.456;-4.456;2024-01-27T01:36:08;7.68;70.66
74178;DHT22;62540;48.456;-4.456;2024-01-27T01:38:33;7.68;70.60
74178;DHT22;62540;48.456;-4.456;2024-01-27T01:40:58;7.68;70.56
74178;DHT22;62540;48.456;-4.456;2024-01-27T01:43:24;7.68;70.51
74178;DHT22;62540;48.456;-4.456;2024-01-27T01:45:49;7.68;70.58
74178;DHT22;62540;48.456;-4.456;2024-01-27T01:48:16;7.68;70.51
74178;DHT22;62540;48.456;-4.456;2024-01-27T01:50:42;7.66;70.52
74178;DHT22;62540;48.456;-4.456;2024-01-27T01:53:07;7.61;70.51
74178;DHT22;62540;48.456;-4.456;2024-01-27T01:55:34;7.58;70.53
74178;DHT22;62540;48.456;-4.456;2024-01-27T01:57:59;7.55;70.48
74178;DHT22;62540;48.456;-4.456;2024-01-27T02:00:25;7.59;70.44
74178;DHT22;62540;48.456;-4.456;2024-01-27T02:02:50;7.56;70.40
74178;DHT22;62540;48.456;-4.456;2024-01-27T02:05:16;7.55;70.40
74178;DHT22;62540;48.456;-4.456;2024-01-27T02:07:41;7.52;70.34
74178;DHT22;62540;48.456;-4.456;2024-01-27T02:10:14;7.55;70.33
74178;DHT22;62540;48.456;-4.456;2024-01-27T02:12:41;7.51;70.29
74178;DHT22;62540;48.456;-4.456;2024-01-27T02:15:10;7.54;70.35
74178;DHT22;62540;48.456;-4.456;2024-01-27T02:17:36;7.50;70.32
74178;DHT22;62540;48.456;-4.456;2024-01-27T02:20:02;7.48;70.48
74178;DHT22;62540;48.456;-4.456;2024-01-27T02:22:28;7.50;70.47
74178;DHT22;62540;48.456;-4.456;2024-01-27T02:24:53;7.47;70.48
74178;DHT22;62540;48.456;-4.456;2024-01-27T02:27:19;7.48;70.47
74178;DHT22;62540;48.456;-4.456;2024-01-27T02:29:44;7.47;70.49
74178;DHT22;62540;48.456;-4.456;2024-01-27T02:32:09;7.43;70.61
74178;DHT22;62540;48.456;-4.456;2024-01-27T02:34:35;7.36;70.72
74178;DHT22;62540;48.456;-4.456;2024-01-27T02:37:00;7.31;70.82
74178;DHT22;62540;48.456;-4.456;2024-01-27T02:39:25;7.36;70.81
74178;DHT22;62540;48.456;-4.456;2024-01-27T02:41:51;7.34;70.77
74178;DHT22;62540;48.456;-4.456;2024-01-27T02:44:16;7.32;70.81
74178;DHT22;62540;48.456;-4.456;2024-01-27T02:46:42;7.35;70.74
74178;DHT22;62540;48.456;-4.456;2024-01-27T02:49:09;7.34;70.75
74178;DHT22;62540;48.456;-4.456;2024-01-27T02:51:34;7.30;70.74
74178;DHT22;62540;48.456;-4.456;2024-01-27T02:53:59;7.31;70.79
74178;DHT22;62540;48.456;-4.456;2024-01-27T02:56:25;7.31;70.75
74178;DHT22;62540;48.456;-4.456;2024-01-27T02:58:51;7.28;70.79
74178;DHT22;62540;48.456;-4.456;2024-01-27T03:01:16;7.31;70.72
74178;DHT22;62540;48.456;-4.456;2024-01-27T03:03:42;7.28;70.71
74178;DHT22;62540;48.456;-4.456;2024-01-27T03:06:07;7.25;70.67
74178;DHT22;62540;48.456;-4.456;2024-01-27T03:08:32;7.24;70.70
74178;DHT22;62540;48.456;-4.456;2024-01-27T03:10:58;7.23;70.79
74178;DHT22;62540;48.456;-4.456;2024-01-27T03:13:24;7.23;70.80
74178;DHT22;62540;48.456;-4.456;2024-01-27T03:15:49;7.21;70.87
74178;DHT22;62540;48.456;-4.456;2024-01-27T03:18:15;7.23;70.91
74178;DHT22;62540;48.456;-4.456;2024-01-27T03:20:40;7.21;70.85
74178;DHT22;62540;48.456;-4.456;2024-01-27T03:23:05;7.20;70.83
74178;DHT22;62540;48.456;-4.456;2024-01-27T03:25:31;7.14;70.82
74178;DHT22;62540;48.456;-4.456;2024-01-27T03:27:56;7.14;70.81
74178;DHT22;62540;48.456;-4.456;2024-01-27T03:30:22;7.18;70.82
74178;DHT22;62540;48.456;-4.456;2024-01-27T03:32:47;7.17;70.85
74178;DHT22;62540;48.456;-4.456;2024-01-27T03:35:13;7.14;70.89
74178;DHT22;62540;48.456;-4.456;2024-01-27T03:37:38;7.15;70.92
74178;DHT22;62540;48.456;-4.456;2024-01-27T03:40:04;7.14;70.90
74178;DHT22;62540;48.456;-4.456;2024-01-27T03:42:30;7.10;70.86
74178;DHT22;62540;48.456;-4.456;2024-01-27T03:44:55;7.07;70.94
74178;DHT22;62540;48.456;-4.456;2024-01-27T03:47:21;7.07;70.97
74178;DHT22;62540;48.456;-4.456;2024-01-27T03:49:46;7.06;71.10
74178;DHT22;62540;48.456;-4.456;2024-01-27T03:52:11;7.06;71.15
74178;DHT22;62540;48.456;-4.456;2024-01-27T03:54:37;7.01;71.14
74178;DHT22;62540;48.456;-4.456;2024-01-27T03:57:03;6.99;71.21
74178;DHT22;62540;48.456;-4.456;2024-01-27T03:59:29;7.00;71.27
74178;DHT22;62540;48.456;-4.456;2024-01-27T04:01:54;6.99;71.34
74178;DHT22;62540;48.456;-4.456;2024-01-27T04:04:20;6.93;71.35
74178;DHT22;62540;48.456;-4.456;2024-01-27T04:06:46;6.96;71.38
74178;DHT22;62540;48.456;-4.456;2024-01-27T04:09:11;6.93;71.39
74178;DHT22;62540;48.456;-4.456;2024-01-27T04:11:37;6.94;71.39
74178;DHT22;62540;48.456;-4.456;2024-01-27T04:14:04;6.94;71.37
74178;DHT22;62540;48.456;-4.456;2024-01-27T04:16:30;6.93;71.47
74178;DHT22;62540;48.456;-4.456;2024-01-27T04:18:55;6.97;71.40
74178;DHT22;62540;48.456;-4.456;2024-01-27T04:21:21;6.99;71.32
74178;DHT22;62540;48.456;-4.456;2024-01-27T04:23:46;6.99;71.25
74178;DHT22;62540;48.456;-4.456;2024-01-27T04:26:12;7.00;71.25
74178;DHT22;62540;48.456;-4.456;2024-01-27T04:28:37;7.01;71.19
74178;DHT22;62540;48.456;-4.456;2024-01-27T04:31:03;7.00;71.09
74178;DHT22;62540;48.456;-4.456;2024-01-27T04:33:29;7.03;71.11
74178;DHT22;62540;48.456;-4.456;2024-01-27T04:35:54;7.03;71.04
74178;DHT22;62540;48.456;-4.456;2024-01-27T04:38:20;6.99;70.90
74178;DHT22;62540;48.456;-4.456;2024-01-27T04:40:45;7.01;71.08
74178;DHT22;62540;48.456;-4.456;2024-01-27T04:43:17;6.99;70.99
74178;DHT22;62540;48.456;-4.456;2024-01-27T04:45:44;7.03;71.08
74178;DHT22;62540;48.456;-4.456;2024-01-27T04:48:09;7.00;70.99
74178;DHT22;62540;48.456;-4.456;2024-01-27T04:50:35;6.96;70.97
74178;DHT22;62540;48.456;-4.456;2024-01-27T04:53:00;6.97;71.01
74178;DHT22;62540;48.456;-4.456;2024-01-27T04:55:26;6.99;71.02
74178;DHT22;62540;48.456;-4.456;2024-01-27T04:57:52;7.01;70.86
74178;DHT22;62540;48.456;-4.456;2024-01-27T05:00:17;7.06;71.04
74178;DHT22;62540;48.456;-4.456;2024-01-27T05:02:43;7.10;70.96
74178;DHT22;62540;48.456;-4.456;2024-01-27T05:05:08;7.10;70.83
74178;DHT22;62540;48.456;-4.456;2024-01-27T05:07:34;7.10;70.78
74178;DHT22;62540;48.456;-4.456;2024-01-27T05:10:00;7.07;70.82
74178;DHT22;62540;48.456;-4.456;2024-01-27T05:12:25;7.07;70.52
74178;DHT22;62540;48.456;-4.456;2024-01-27T05:14:51;7.08;70.36
74178;DHT22;62540;48.456;-4.456;2024-01-27T05:17:16;7.10;70.46
74178;DHT22;62540;48.456;-4.456;2024-01-27T05:19:41;7.13;70.64
74178;DHT22;62540;48.456;-4.456;2024-01-27T05:22:07;7.10;70.31
74178;DHT22;62540;48.456;-4.456;2024-01-27T05:24:32;7.11;70.13
74178;DHT22;62540;48.456;-4.456;2024-01-27T05:26:58;7.14;70.31
74178;DHT22;62540;48.456;-4.456;2024-01-27T05:29:25;7.17;70.35
74178;DHT22;62540;48.456;-4.456;2024-01-27T05:31:51;7.23;70.35
74178;DHT22;62540;48.456;-4.456;2024-01-27T05:34:16;7.21;70.04
74178;DHT22;62540;48.456;-4.456;2024-01-27T05:36:41;7.24;70.10
74178;DHT22;62540;48.456;-4.456;2024-01-27T05:39:07;7.23;69.92
74178;DHT22;62540;48.456;-4.456;2024-01-27T05:41:33;7.23;70.09
74178;DHT22;62540;48.456;-4.456;2024-01-27T05:43:58;7.27;70.15
74178;DHT22;62540;48.456;-4.456;2024-01-27T05:46:25;7.30;70.17
74178;DHT22;62540;48.456;-4.456;2024-01-27T05:48:50;7.34;70.13
74178;DHT22;62540;48.456;-4.456;2024-01-27T05:51:19;7.35;70.02
74178;DHT22;62540;48.456;-4.456;2024-01-27T05:53:44;7.31;69.59
74178;DHT22;62540;48.456;-4.456;2024-01-27T05:56:10;7.34;69.21
74178;DHT22;62540;48.456;-4.456;2024-01-27T05:58:36;7.36;69.58
74178;DHT22;62540;48.456;-4.456;2024-01-27T06:01:02;7.47;69.45
74178;DHT22;62540;48.456;-4.456;2024-01-27T06:03:27;7.50;69.61
74178;DHT22;62540;48.456;-4.456;2024-01-27T06:05:53;7.52;69.42
74178;DHT22;62540;48.456;-4.456;2024-01-27T06:08:18;7.54;69.32
74178;DHT22;62540;48.456;-4.456;2024-01-27T06:10:45;7.56;69.53
74178;DHT22;62540;48.456;-4.456;2024-01-27T06:13:10;7.62;69.61
74178;DHT22;62540;48.456;-4.456;2024-01-27T06:15:36;7.65;69.63
74178;DHT22;62540;48.456;-4.456;2024-01-27T06:18:01;7.64;69.58
74178;DHT22;62540;48.456;-4.456;2024-01-27T06:20:27;7.69;69.71
74178;DHT22;62540;48.456;-4.456;2024-01-27T06:22:53;7.71;69.55
74178;DHT22;62540;48.456;-4.456;2024-01-27T06:25:18;7.69;69.59
74178;DHT22;62540;48.456;-4.456;2024-01-27T06:27:44;7.69;69.49
74178;DHT22;62540;48.456;-4.456;2024-01-27T06:30:10;7.68;69.42
74178;DHT22;62540;48.456;-4.456;2024-01-27T06:32:36;7.62;69.57
74178;DHT22;62540;48.456;-4.456;2024-01-27T06:35:02;7.68;69.69
74178;DHT22;62540;48.456;-4.456;2024-01-27T06:37:28;7.66;69.68
74178;DHT22;62540;48.456;-4.456;2024-01-27T06:39:54;7.69;69.40
74178;DHT22;62540;48.456;-4.456;2024-01-27T06:42:19;7.62;69.43
74178;DHT22;62540;48.456;-4.456;2024-01-27T06:44:45;7.52;69.49
74178;DHT22;62540;48.456;-4.456;2024-01-27T06:47:10;7.52;69.77
74178;DHT22;62540;48.456;-4.456;2024-01-27T06:49:35;7.55;69.99
74178;DHT22;62540;48.456;-4.456;2024-01-27T06:52:01;7.59;69.87
74178;DHT22;62540;48.456;-4.456;2024-01-27T06:54:26;7.59;69.80
74178;DHT22;62540;48.456;-4.456;2024-01-27T06:56:52;7.55;69.70
74178;DHT22;62540;48.456;-4.456;2024-01-27T06:59:17;7.54;69.95
74178;DHT22;62540;48.456;-4.456;2024-01-27T07:01:48;7.55;69.91
74178;DHT22;62540;48.456;-4.456;2024-01-27T07:04:14;7.56;70.02
74178;DHT22;62540;48.456;-4.456;2024-01-27T07:06:40;7.56;69.97
74178;DHT22;62540;48.456;-4.456;2024-01-27T07:09:05;7.58;70.02
74178;DHT22;62540;48.456;-4.456;2024-01-27T07:11:32;7.58;69.87
74178;DHT22;62540;48.456;-4.456;2024-01-27T07:13:57;7.55;69.98
74178;DHT22;62540;48.456;-4.456;2024-01-27T07:16:23;7.58;70.07
74178;DHT22;62540;48.456;-4.456;2024-01-27T07:18:49;7.61;70.07
74178;DHT22;62540;48.456;-4.456;2024-01-27T07:21:15;7.55;70.05
74178;DHT22;62540;48.456;-4.456;2024-01-27T07:23:44;7.55;70.25
74178;DHT22;62540;48.456;-4.456;2024-01-27T07:26:10;7.54;70.15
74178;DHT22;62540;48.456;-4.456;2024-01-27T07:28:36;7.51;70.21
74178;DHT22;62540;48.456;-4.456;2024-01-27T07:31:02;7.54;70.35
74178;DHT22;62540;48.456;-4.456;2024-01-27T07:33:27;7.51;70.37
74178;DHT22;62540;48.456;-4.456;2024-01-27T07:35:53;7.45;70.42
74178;DHT22;62540;48.456;-4.456;2024-01-27T07:38:18;7.45;70.50
74178;DHT22;62540;48.456;-4.456;2024-01-27T07:40:43;7.47;70.57
74178;DHT22;62540;48.456;-4.456;2024-01-27T07:43:09;7.47;70.60
74178;DHT22;62540;48.456;-4.456;2024-01-27T07:45:34;7.47;70.66
74178;DHT22;62540;48.456;-4.456;2024-01-27T07:48:00;7.47;70.60
74178;DHT22;62540;48.456;-4.456;2024-01-27T07:50:26;7.50;70.65
74178;DHT22;62540;48.456;-4.456;2024-01-27T07:52:51;7.52;70.66
74178;DHT22;62540;48.456;-4.456;2024-01-27T07:55:16;7.45;70.61
74178;DHT22;62540;48.456;-4.456;2024-01-27T07:57:42;7.41;70.73
74178;DHT22;62540;48.456;-4.456;2024-01-27T08:00:08;7.44;70.80
74178;DHT22;62540;48.456;-4.456;2024-01-27T08:02:34;7.48;70.74
74178;DHT22;62540;48.456;-4.456;2024-01-27T08:04:59;7.47;70.74
74178;DHT22;62540;48.456;-4.456;2024-01-27T08:07:25;7.50;70.80
74178;DHT22;62540;48.456;-4.456;2024-01-27T08:09:50;7.52;70.82
74178;DHT22;62540;48.456;-4.456;2024-01-27T08:12:15;7.48;70.70
74178;DHT22;62540;48.456;-4.456;2024-01-27T08:14:41;7.51;70.81
74178;DHT22;62540;48.456;-4.456;2024-01-27T08:17:06;7.48;70.89
74178;DHT22;62540;48.456;-4.456;2024-01-27T08:19:32;7.52;70.87
74178;DHT22;62540;48.456;-4.456;2024-01-27T08:21:57;7.52;70.88
74178;DHT22;62540;48.456;-4.456;2024-01-27T08:24:23;7.56;70.95
74178;DHT22;62540;48.456;-4.456;2024-01-27T08:26:49;7.59;70.90
74178;DHT22;62540;48.456;-4.456;2024-01-27T08:29:15;7.64;70.90
74178;DHT22;62540;48.456;-4.456;2024-01-27T08:31:41;7.65;70.90
74178;DHT22;62540;48.456;-4.456;2024-01-27T08:34:06;7.73;70.87
74178;DHT22;62540;48.456;-4.456;2024-01-27T08:36:32;7.75;70.84
74178;DHT22;62540;48.456;-4.456;2024-01-27T08:38:59;7.81;70.84
74178;DHT22;62540;48.456;-4.456;2024-01-27T08:41:24;7.81;70.87
74178;DHT22;62540;48.456;-4.456;2024-01-27T08:43:50;7.82;70.98
74178;DHT22;62540;48.456;-4.456;2024-01-27T08:46:16;7.85;71.04
74178;DHT22;62540;48.456;-4.456;2024-01-27T08:48:43;7.86;71.03
74178;DHT22;62540;48.456;-4.456;2024-01-27T08:51:09;7.92;71.12
74178;DHT22;62540;48.456;-4.456;2024-01-27T08:53:35;7.93;71.10
74178;DHT22;62540;48.456;-4.456;2024-01-27T08:56:01;7.97;71.06
74178;DHT22;62540;48.456;-4.456;2024-01-27T08:58:26;8.00;71.10
74178;DHT22;62540;48.456;-4.456;2024-01-27T09:00:52;8.00;71.15
74178;DHT22;62540;48.456;-4.456;2024-01-27T09:03:18;8.09;71.12
74178;DHT22;62540;48.456;-4.456;2024-01-27T09:05:46;8.12;71.07
74178;DHT22;62540;48.456;-4.456;2024-01-27T09:08:11;8.17;71.09
74178;DHT22;62540;48.456;-4.456;2024-01-27T09:10:37;8.17;71.03
74178;DHT22;62540;48.456;-4.456;2024-01-27T09:13:02;8.21;70.99
74178;DHT22;62540;48.456;-4.456;2024-01-27T09:15:27;8.29;70.89
74178;DHT22;62540;48.456;-4.456;2024-01-27T09:17:53;8.36;70.82
74178;DHT22;62540;48.456;-4.456;2024-01-27T09:20:19;8.40;70.82
74178;DHT22;62540;48.456;-4.456;2024-01-27T09:22:44;8.50;70.82
74178;DHT22;62540;48.456;-4.456;2024-01-27T09:25:12;8.54;70.14
74178;DHT22;62540;48.456;-4.456;2024-01-27T09:27:38;8.61;70.51
74178;DHT22;62540;48.456;-4.456;2024-01-27T09:30:04;8.64;70.42
74178;DHT22;62540;48.456;-4.456;2024-01-27T09:32:30;8.67;70.36
74178;DHT22;62540;48.456;-4.456;2024-01-27T09:34:55;8.72;70.48
74178;DHT22;62540;48.456;-4.456;2024-01-27T09:37:21;8.76;70.55
74178;DHT22;62540;48.456;-4.456;2024-01-27T09:39:46;8.86;70.31
74178;DHT22;62540;48.456;-4.456;2024-01-27T09:42:13;8.86;70.15
74178;DHT22;62540;48.456;-4.456;2024-01-27T09:44:48;8.95;70.48
74178;DHT22;62540;48.456;-4.456;2024-01-27T09:47:13;8.92;70.19
74178;DHT22;62540;48.456;-4.456;2024-01-27T09:49:42;9.02;70.64
74178;DHT22;62540;48.456;-4.456;2024-01-27T09:52:08;9.05;70.37
74178;DHT22;62540;48.456;-4.456;2024-01-27T09:54:34;9.08;70.62
74178;DHT22;62540;48.456;-4.456;2024-01-27T09:57:00;9.13;70.77
74178;DHT22;62540;48.456;-4.456;2024-01-27T09:59:26;9.18;70.83
74178;DHT22;62540;48.456;-4.456;2024-01-27T10:01:52;9.36;70.86
74178;DHT22;62540;48.456;-4.456;2024-01-27T10:04:22;9.50;70.90
74178;DHT22;62540;48.456;-4.456;2024-01-27T10:06:49;9.65;70.70
74178;DHT22;62540;48.456;-4.456;2024-01-27T10:09:16;9.78;70.59
74178;DHT22;62540;48.456;-4.456;2024-01-27T10:11:46;9.88;70.55
74178;DHT22;62540;48.456;-4.456;2024-01-27T10:14:12;9.97;70.57
74178;DHT22;62540;48.456;-4.456;2024-01-27T10:16:45;10.05;70.59
74178;DHT22;62540;48.456;-4.456;2024-01-27T10:19:18;10.12;70.55
74178;DHT22;62540;48.456;-4.456;2024-01-27T10:21:47;10.16;70.48
74178;DHT22;62540;48.456;-4.456;2024-01-27T10:24:13;10.18;70.64
74178;DHT22;62540;48.456;-4.456;2024-01-27T10:26:39;10.19;70.32
74178;DHT22;62540;48.456;-4.456;2024-01-27T10:29:04;10.16;70.13
74178;DHT22;62540;48.456;-4.456;2024-01-27T10:31:36;10.06;70.26
74178;DHT22;62540;48.456;-4.456;2024-01-27T10:34:02;10.09;70.57
74178;DHT22;62540;48.456;-4.456;2024-01-27T10:36:39;10.08;70.53
74178;DHT22;62540;48.456;-4.456;2024-01-27T10:39:22;9.98;70.74
74178;DHT22;62540;48.456;-4.456;2024-01-27T10:41:48;9.99;70.90
74178;DHT22;62540;48.456;-4.456;2024-01-27T10:44:16;10.01;70.84
74178;DHT22;62540;48.456;-4.456;2024-01-27T10:46:43;9.99;70.97
74178;DHT22;62540;48.456;-4.456;2024-01-27T10:49:12;9.99;71.02
74178;DHT22;62540;48.456;-4.456;2024-01-27T10:51:45;10.09;71.06
74178;DHT22;62540;48.456;-4.456;2024-01-27T10:54:15;10.08;71.02
74178;DHT22;62540;48.456;-4.456;2024-01-27T10:56:45;10.06;71.14
74178;DHT22;62540;48.456;-4.456;2024-01-27T10:59:11;10.13;71.28
74178;DHT22;62540;48.456;-4.456;2024-01-27T11:01:41;10.13;71.16
74178;DHT22;62540;48.456;-4.456;2024-01-27T11:04:06;10.18;71.23
74178;DHT22;62540;48.456;-4.456;2024-01-27T11:06:35;10.23;71.21
74178;DHT22;62540;48.456;-4.456;2024-01-27T11:09:02;10.36;71.26
74178;DHT22;62540;48.456;-4.456;2024-01-27T11:11:31;10.43;71.18
74178;DHT22;62540;48.456;-4.456;2024-01-27T11:13:57;10.47;71.21
74178;DHT22;62540;48.456;-4.456;2024-01-27T11:16:23;10.55;71.24
74178;DHT22;62540;48.456;-4.456;2024-01-27T11:18:49;10.67;71.18
74178;DHT22;62540;48.456;-4.456;2024-01-27T11:21:15;10.68;70.99
74178;DHT22;62540;48.456;-4.456;2024-01-27T11:23:41;10.73;71.03
74178;DHT22;62540;48.456;-4.456;2024-01-27T11:26:08;10.84;71.04
74178;DHT22;62540;48.456;-4.456;2024-01-27T11:28:35;10.88;70.97
74178;DHT22;62540;48.456;-4.456;2024-01-27T11:31:05;10.91;70.88
74178;DHT22;62540;48.456;-4.456;2024-01-27T11:33:30;10.97;70.91
74178;DHT22;62540;48.456;-4.456;2024-01-27T11:36:03;11.05;70.96
74178;DHT22;62540;48.456;-4.456;2024-01-27T11:38:30;11.05;70.87
74178;DHT22;62540;48.456;-4.456;2024-01-27T11:40:56;11.01;70.93
74178;DHT22;62540;48.456;-4.456;2024-01-27T11:43:21;11.07;71.08
74178;DHT22;62540;48.456;-4.456;2024-01-27T11:45:59;11.07;71.03
74178;DHT22;62540;48.456;-4.456;2024-01-27T11:48:25;11.11;71.01
74178;DHT22;62540;48.456;-4.456;2024-01-27T11:51:20;11.12;71.10
74178;DHT22;62540;48.456;-4.456;2024-01-27T11:53:45;11.18;71.12
74178;DHT22;62540;48.456;-4.456;2024-01-27T11:56:12;11.25;70.97
74178;DHT22;62540;48.456;-4.456;2024-01-27T11:58:37;11.34;70.90
74178;DHT22;62540;48.456;-4.456;2024-01-27T12:01:03;11.38;70.75
74178;DHT22;62540;48.456;-4.456;2024-01-27T12:03:29;11.39;70.83
74178;DHT22;62540;48.456;-4.456;2024-01-27T12:05:55;11.40;70.89
74178;DHT22;62540;48.456;-4.456;2024-01-27T12:08:20;11.45;71.02
74178;DHT22;62540;48.456;-4.456;2024-01-27T12:10:46;11.43;70.90
74178;DHT22;62540;48.456;-4.456;2024-01-27T12:13:12;11.46;71.01
74178;DHT22;62540;48.456;-4.456;2024-01-27T12:15:38;11.52;71.13
74178;DHT22;62540;48.456;-4.456;2024-01-27T12:18:06;11.47;71.05
74178;DHT22;62540;48.456;-4.456;2024-01-27T12:20:32;11.53;71.21
74178;DHT22;62540;48.456;-4.456;2024-01-27T12:23:04;11.55;71.18
74178;DHT22;62540;48.456;-4.456;2024-01-27T12:25:29;11.53;71.36
74178;DHT22;62540;48.456;-4.456;2024-01-27T12:27:55;11.59;71.35
74178;DHT22;62540;48.456;-4.456;2024-01-27T12:30:21;11.62;71.31
74178;DHT22;62540;48.456;-4.456;2024-01-27T12:32:47;11.65;71.28
74178;DHT22;62540;48.456;-4.456;2024-01-27T12:35:12;11.72;71.33
74178;DHT22;62540;48.456;-4.456;2024-01-27T12:37:38;11.69;71.62
74178;DHT22;62540;48.456;-4.456;2024-01-27T12:40:23;11.70;71.62
74178;DHT22;62540;48.456;-4.456;2024-01-27T12:42:48;11.67;71.77
74178;DHT22;62540;48.456;-4.456;2024-01-27T12:45:14;11.62;71.93
74178;DHT22;62540;48.456;-4.456;2024-01-27T12:47:39;11.56;72.20
74178;DHT22;62540;48.456;-4.456;2024-01-27T12:50:06;11.47;72.48
74178;DHT22;62540;48.456;-4.456;2024-01-27T12:52:31;11.52;72.54
74178;DHT22;62540;48.456;-4.456;2024-01-27T12:54:57;11.51;72.61
74178;DHT22;62540;48.456;-4.456;2024-01-27T12:57:22;11.58;72.52
74178;DHT22;62540;48.456;-4.456;2024-01-27T12:59:48;11.67;72.55
74178;DHT22;62540;48.456;-4.456;2024-01-27T13:02:13;11.66;72.39
74178;DHT22;62540;48.456;-4.456;2024-01-27T13:04:40;11.66;72.38
74178;DHT22;62540;48.456;-4.456;2024-01-27T13:07:06;11.62;72.46
74178;DHT22;62540;48.456;-4.456;2024-01-27T13:09:31;11.62;72.59
74178;DHT22;62540;48.456;-4.456;2024-01-27T13:11:56;11.61;72.60
74178;DHT22;62540;48.456;-4.456;2024-01-27T13:14:22;11.55;73.00
74178;DHT22;62540;48.456;-4.456;2024-01-27T13:16:47;11.58;72.90
74178;DHT22;62540;48.456;-4.456;2024-01-27T13:19:13;11.63;72.95
74178;DHT22;62540;48.456;-4.456;2024-01-27T13:21:38;11.67;73.00
74178;DHT22;62540;48.456;-4.456;2024-01-27T13:24:05;11.74;73.10
74178;DHT22;62540;48.456;-4.456;2024-01-27T13:26:33;11.80;73.32
74178;DHT22;62540;48.456;-4.456;2024-01-27T13:29:03;11.86;73.41
74178;DHT22;62540;48.456;-4.456;2024-01-27T13:31:29;11.87;73.51
74178;DHT22;62540;48.456;-4.456;2024-01-27T13:33:54;11.87;73.73
74178;DHT22;62540;48.456;-4.456;2024-01-27T13:36:21;11.89;73.61
74178;DHT22;62540;48.456;-4.456;2024-01-27T13:38:46;11.93;73.67
74178;DHT22;62540;48.456;-4.456;2024-01-27T13:41:11;12.05;73.65
74178;DHT22;62540;48.456;-4.456;2024-01-27T13:43:37;12.11;73.45
74178;DHT22;62540;48.456;-4.456;2024-01-27T13:46:02;12.17;73.28
74178;DHT22;62540;48.456;-4.456;2024-01-27T13:48:28;12.16;73.13
74178;DHT22;62540;48.456;-4.456;2024-01-27T13:50:54;12.20;73.15
74178;DHT22;62540;48.456;-4.456;2024-01-27T13:53:19;12.30;73.14
74178;DHT22;62540;48.456;-4.456;2024-01-27T13:55:45;12.35;73.04
74178;DHT22;62540;48.456;-4.456;2024-01-27T13:58:10;12.44;72.95
74178;DHT22;62540;48.456;-4.456;2024-01-27T14:00:36;12.52;72.83
74178;DHT22;62540;48.456;-4.456;2024-01-27T14:03:01;12.55;72.70
74178;DHT22;62540;48.456;-4.456;2024-01-27T14:05:27;12.48;72.99
74178;DHT22;62540;48.456;-4.456;2024-01-27T14:07:52;12.42;73.15
74178;DHT22;62540;48.456;-4.456;2024-01-27T14:10:17;12.46;73.22
74178;DHT22;62540;48.456;-4.456;2024-01-27T14:12:43;12.48;73.18
74178;DHT22;62540;48.456;-4.456;2024-01-27T14:15:08;12.52;73.09
74178;DHT22;62540;48.456;-4.456;2024-01-27T14:17:35;12.55;73.19
74178;DHT22;62540;48.456;-4.456;2024-01-27T14:20:02;12.52;73.35
74178;DHT22;62540;48.456;-4.456;2024-01-27T14:22:27;12.55;73.32
74178;DHT22;62540;48.456;-4.456;2024-01-27T14:24:52;12.61;73.33
74178;DHT22;62540;48.456;-4.456;2024-01-27T14:27:18;12.65;73.32
74178;DHT22;62540;48.456;-4.456;2024-01-27T14:29:51;12.65;73.36
74178;DHT22;62540;48.456;-4.456;2024-01-27T14:32:17;12.69;73.48
74178;DHT22;62540;48.456;-4.456;2024-01-27T14:34:42;12.71;73.48
74178;DHT22;62540;48.456;-4.456;2024-01-27T14:37:07;12.75;73.47
74178;DHT22;62540;48.456;-4.456;2024-01-27T14:39:33;12.72;73.36
74178;DHT22;62540;48.456;-4.456;2024-01-27T14:41:59;12.69;73.45
74178;DHT22;62540;48.456;-4.456;2024-01-27T14:44:24;12.66;73.60
74178;DHT22;62540;48.456;-4.456;2024-01-27T14:46:50;12.65;73.54
74178;DHT22;62540;48.456;-4.456;2024-01-27T14:49:15;12.65;73.54
74178;DHT22;62540;48.456;-4.456;2024-01-27T14:51:41;12.71;73.49
74178;DHT22;62540;48.456;-4.456;2024-01-27T14:54:06;12.75;73.45
74178;DHT22;62540;48.456;-4.456;2024-01-27T14:56:31;12.79;73.31
74178;DHT22;62540;48.456;-4.456;2024-01-27T14:59:00;12.73;73.28
74178;DHT22;62540;48.456;-4.456;2024-01-27T15:01:25;12.75;73.31
74178;DHT22;62540;48.456;-4.456;2024-01-27T15:03:52;12.73;73.46
74178;DHT22;62540;48.456;-4.456;2024-01-27T15:06:18;12.79;73.50
74178;DHT22;62540;48.456;-4.456;2024-01-27T15:08:43;12.75;73.52
74178;DHT22;62540;48.456;-4.456;2024-01-27T15:11:10;12.78;73.50
74178;DHT22;62540;48.456;-4.456;2024-01-27T15:13:36;12.71;73.71
74178;DHT22;62540;48.456;-4.456;2024-01-27T15:16:01;12.71;73.64
74178;DHT22;62540;48.456;-4.456;2024-01-27T15:18:27;12.65;73.77